sensor_id;sensor_type;location;lat;lon;timestamp;P1;durP1;ratioP1;P2;durP2;ratioP2
9563;SDS011;4820;50.870;4.702;2023-04-01T00:00:55;3.67;;;1.48;;
9563;SDS011;4820;50.870;4.702;2023-04-01T00:03:22;4.03;;;1.40;;
9563;SDS011;4820;50.870;4.702;2023-04-01T00:05:49;4.15;;;1.48;;
9563;SDS011;4820;50.870;4.702;2023-04-01T00:08:15;3.75;;;1.30;;
9563;SDS011;4820;50.870;4.702;2023-04-01T00:10:41;3.45;;;1.20;;
9563;SDS011;4820;50.870;4.702;2023-04-01T00:13:07;4.28;;;1.42;;
9563;SDS011;4820;50.870;4.702;2023-04-01T00:15:34;2.92;;;1.20;;
9563;SDS011;4820;50.870;4.702;2023-04-01T00:18:01;5.43;;;1.67;;
9563;SDS011;4820;50.870;4.702;2023-04-01T00:20:27;3.65;;;1.27;;
9563;SDS011;4820;50.870;4.702;2023-04-01T00:22:53;1.92;;;1.00;;
9563;SDS011;4820;50.870;4.702;2023-04-01T00:25:19;2.42;;;1.20;;
9563;SDS011;4820;50.870;4.702;2023-04-01T00:27:45;3.97;;;1.50;;
9563;SDS011;4820;50.870;4.702;2023-04-01T00:30:10;3.20;;;1.33;;
9563;SDS011;4820;50.870;4.702;2023-04-01T00:32:36;2.70;;;1.38;;
9563;SDS011;4820;50.870;4.702;2023-04-01T00:35:02;3.40;;;1.30;;
9563;SDS011;4820;50.870;4.702;2023-04-01T00:37:30;3.63;;;1.25;;
9563;SDS011;4820;50.870;4.702;2023-04-01T00:39:56;1.95;;;1.20;;
9563;SDS011;4820;50.870;4.702;2023-04-01T00:42:22;3.20;;;1.20;;
9563;SDS011;4820;50.870;4.702;2023-04-01T00:44:50;4.18;;;1.27;;
9563;SDS011;4820;50.870;4.702;2023-04-01T00:47:17;3.67;;;1.40;;
9563;SDS011;4820;50.870;4.702;2023-04-01T00:49:44;2.85;;;1.30;;
9563;SDS011;4820;50.870;4.702;2023-04-01T00:52:13;3.58;;;1.05;;
9563;SDS011;4820;50.870;4.702;2023-04-01T00:54:41;2.78;;;1.23;;
9563;SDS011;4820;50.870;4.702;2023-04-01T00:57:30;3.92;;;1.20;;
9563;SDS011;4820;50.870;4.702;2023-04-01T00:59:59;5.70;;;1.40;;
9563;SDS011;4820;50.870;4.702;2023-04-01T01:02:24;2.40;;;1.13;;
9563;SDS011;4820;50.870;4.702;2023-04-01T01:04:51;2.25;;;1.10;;
9563;SDS011;4820;50.870;4.702;2023-04-01T01:07:36;2.20;;;1.10;;
9563;SDS011;4820;50.870;4.702;2023-04-01T01:10:07;3.08;;;1.13;;
9563;SDS011;4820;50.870;4.702;2023-04-01T01:21:17;3.28;;;1.10;;
9563;SDS011;4820;50.870;4.702;2023-04-01T01:37:17;2.45;;;1.30;;
9563;SDS011;4820;50.870;4.702;2023-04-01T01:39:47;1.85;;;1.20;;
9563;SDS011;4820;50.870;4.702;2023-04-01T01:42:16;2.20;;;1.00;;
9563;SDS011;4820;50.870;4.702;2023-04-01T01:44:44;2.35;;;1.08;;
9563;SDS011;4820;50.870;4.702;2023-04-01T01:47:11;2.22;;;1.10;;
9563;SDS011;4820;50.870;4.702;2023-04-01T01:49:39;2.45;;;1.10;;
9563;SDS011;4820;50.870;4.702;2023-04-01T01:52:08;1.98;;;0.77;;
9563;SDS011;4820;50.870;4.702;2023-04-01T01:54:34;1.15;;;0.80;;
9563;SDS011;4820;50.870;4.702;2023-04-01T01:57:07;1.52;;;0.88;;
9563;SDS011;4820;50.870;4.702;2023-04-01T01:59:35;1.50;;;0.88;;
9563;SDS011;4820;50.870;4.702;2023-04-01T02:02:03;1.10;;;0.85;;
9563;SDS011;4820;50.870;4.702;2023-04-01T02:04:42;1.42;;;0.90;;
9563;SDS011;4820;50.870;4.702;2023-04-01T02:07:12;0.88;;;0.68;;
9563;SDS011;4820;50.870;4.702;2023-04-01T02:09:43;1.80;;;1.00;;
9563;SDS011;4820;50.870;4.702;2023-04-01T02:12:10;1.20;;;1.00;;
9563;SDS011;4820;50.870;4.702;2023-04-01T02:14:53;1.95;;;1.20;;
9563;SDS011;4820;50.870;4.702;2023-04-01T02:17:30;1.40;;;1.17;;
9563;SDS011;4820;50.870;4.702;2023-04-01T02:19:58;2.67;;;1.52;;
9563;SDS011;4820;50.870;4.702;2023-04-01T02:22:31;2.83;;;1.70;;
9563;SDS011;4820;50.870;4.702;2023-04-01T02:25:09;2.67;;;1.70;;
9563;SDS011;4820;50.870;4.702;2023-04-01T02:27:38;2.13;;;1.50;;
9563;SDS011;4820;50.870;4.702;2023-04-01T02:30:05;5.15;;;2.20;;
9563;SDS011;4820;50.870;4.702;2023-04-01T02:32:32;3.58;;;2.28;;
9563;SDS011;4820;50.870;4.702;2023-04-01T02:35:00;2.95;;;2.20;;
9563;SDS011;4820;50.870;4.702;2023-04-01T02:37:30;4.35;;;2.40;;
9563;SDS011;4820;50.870;4.702;2023-04-01T02:40:00;4.53;;;2.40;;
9563;SDS011;4820;50.870;4.702;2023-04-01T02:42:27;4.55;;;2.40;;
9563;SDS011;4820;50.870;4.702;2023-04-01T02:44:53;4.20;;;2.63;;
9563;SDS011;4820;50.870;4.702;2023-04-01T02:47:19;4.43;;;2.47;;
9563;SDS011;4820;50.870;4.702;2023-04-01T02:49:44;3.15;;;1.95;;
9563;SDS011;4820;50.870;4.702;2023-04-01T02:52:10;2.22;;;1.60;;
9563;SDS011;4820;50.870;4.702;2023-04-01T02:54:35;4.18;;;1.90;;
9563;SDS011;4820;50.870;4.702;2023-04-01T02:57:01;3.17;;;1.90;;
9563;SDS011;4820;50.870;4.702;2023-04-01T02:59:27;3.05;;;2.05;;
9563;SDS011;4820;50.870;4.702;2023-04-01T03:01:53;3.08;;;2.00;;
9563;SDS011;4820;50.870;4.702;2023-04-01T03:04:18;4.47;;;2.20;;
9563;SDS011;4820;50.870;4.702;2023-04-01T03:06:44;3.92;;;2.35;;
9563;SDS011;4820;50.870;4.702;2023-04-01T03:09:10;4.93;;;2.22;;
9563;SDS011;4820;50.870;4.702;2023-04-01T03:11:35;4.38;;;2.13;;
9563;SDS011;4820;50.870;4.702;2023-04-01T03:14:01;4.28;;;2.20;;
9563;SDS011;4820;50.870;4.702;2023-04-01T03:16:27;3.85;;;2.10;;
9563;SDS011;4820;50.870;4.702;2023-04-01T03:18:52;5.72;;;2.08;;
9563;SDS011;4820;50.870;4.702;2023-04-01T03:21:21;4.43;;;2.05;;
9563;SDS011;4820;50.870;4.702;2023-04-01T03:23:48;4.18;;;1.98;;
9563;SDS011;4820;50.870;4.702;2023-04-01T03:26:14;6.38;;;2.42;;
9563;SDS011;4820;50.870;4.702;2023-04-01T03:28:42;6.07;;;2.50;;
9563;SDS011;4820;50.870;4.702;2023-04-01T03:31:10;5.35;;;2.45;;
9563;SDS011;4820;50.870;4.702;2023-04-01T03:33:35;4.97;;;2.58;;
9563;SDS011;4820;50.870;4.702;2023-04-01T03:36:02;4.57;;;2.40;;
9563;SDS011;4820;50.870;4.702;2023-04-01T03:38:31;4.43;;;2.40;;
9563;SDS011;4820;50.870;4.702;2023-04-01T03:40:58;4.95;;;2.33;;
9563;SDS011;4820;50.870;4.702;2023-04-01T03:43:24;3.65;;;2.20;;
9563;SDS011;4820;50.870;4.702;2023-04-01T03:45:51;4.38;;;2.60;;
9563;SDS011;4820;50.870;4.702;2023-04-01T03:48:17;4.93;;;2.60;;
9563;SDS011;4820;50.870;4.702;2023-04-01T03:50:43;6.95;;;2.95;;
9563;SDS011;4820;50.870;4.702;2023-04-01T03:53:10;6.63;;;3.50;;
9563;SDS011;4820;50.870;4.702;2023-04-01T03:55:36;6.00;;;3.42;;
9563;SDS011;4820;50.870;4.702;2023-04-01T03:58:02;6.03;;;3.55;;
9563;SDS011;4820;50.870;4.702;2023-04-01T04:00:29;5.10;;;3.60;;
9563;SDS011;4820;50.870;4.702;2023-04-01T04:02:55;6.80;;;3.63;;
9563;SDS011;4820;50.870;4.702;2023-04-01T04:05:24;6.25;;;3.95;;
9563;SDS011;4820;50.870;4.702;2023-04-01T04:07:51;7.07;;;4.07;;
9563;SDS011;4820;50.870;4.702;2023-04-01T04:10:17;6.85;;;3.92;;
9563;SDS011;4820;50.870;4.702;2023-04-01T04:12:43;6.03;;;3.90;;
9563;SDS011;4820;50.870;4.702;2023-04-01T04:15:09;6.63;;;3.90;;
9563;SDS011;4820;50.870;4.702;2023-04-01T04:17:35;9.10;;;4.38;;
9563;SDS011;4820;50.870;4.702;2023-04-01T04:20:01;7.28;;;4.47;;
9563;SDS011;4820;50.870;4.702;2023-04-01T04:22:27;7.78;;;4.68;;
9563;SDS011;4820;50.870;4.702;2023-04-01T04:24:53;7.90;;;5.15;;
9563;SDS011;4820;50.870;4.702;2023-04-01T04:27:18;8.25;;;4.60;;
9563;SDS011;4820;50.870;4.702;2023-04-01T04:29:44;9.07;;;4.57;;
9563;SDS011;4820;50.870;4.702;2023-04-01T04:32:10;7.47;;;4.80;;
9563;SDS011;4820;50.870;4.702;2023-04-01T04:34:35;7.80;;;4.15;;
9563;SDS011;4820;50.870;4.702;2023-04-01T04:37:01;8.48;;;4.63;;
9563;SDS011;4820;50.870;4.702;2023-04-01T04:39:27;6.15;;;4.50;;
9563;SDS011;4820;50.870;4.702;2023-04-01T04:41:53;6.78;;;4.05;;
9563;SDS011;4820;50.870;4.702;2023-04-01T04:44:18;6.28;;;4.07;;
9563;SDS011;4820;50.870;4.702;2023-04-01T04:46:44;7.97;;;4.18;;
9563;SDS011;4820;50.870;4.702;2023-04-01T04:49:10;6.53;;;4.05;;
9563;SDS011;4820;50.870;4.702;2023-04-01T04:51:35;5.60;;;3.83;;
9563;SDS011;4820;50.870;4.702;2023-04-01T04:54:04;8.27;;;4.30;;
9563;SDS011;4820;50.870;4.702;2023-04-01T04:56:31;6.78;;;4.22;;
9563;SDS011;4820;50.870;4.702;2023-04-01T04:58:57;7.03;;;3.55;;
9563;SDS011;4820;50.870;4.702;2023-04-01T05:01:23;4.18;;;3.50;;
9563;SDS011;4820;50.870;4.702;2023-04-01T05:03:50;3.75;;;3.00;;
9563;SDS011;4820;50.870;4.702;2023-04-01T05:06:18;5.30;;;3.20;;
9563;SDS011;4820;50.870;4.702;2023-04-01T05:08:44;4.63;;;2.95;;
9563;SDS011;4820;50.870;4.702;2023-04-01T05:11:15;3.28;;;2.65;;
9563;SDS011;4820;50.870;4.702;2023-04-01T05:13:51;4.35;;;2.53;;
9563;SDS011;4820;50.870;4.702;2023-04-01T05:16:19;3.47;;;2.67;;
9563;SDS011;4820;50.870;4.702;2023-04-01T05:18:48;2.97;;;2.40;;
9563;SDS011;4820;50.870;4.702;2023-04-01T05:21:14;3.15;;;2.10;;
9563;SDS011;4820;50.870;4.702;2023-04-01T05:23:41;5.22;;;2.28;;
9563;SDS011;4820;50.870;4.702;2023-04-01T05:26:08;2.83;;;2.40;;
9563;SDS011;4820;50.870;4.702;2023-04-01T05:28:37;3.47;;;2.40;;
9563;SDS011;4820;50.870;4.702;2023-04-01T05:31:03;3.42;;;2.30;;
9563;SDS011;4820;50.870;4.702;2023-04-01T05:33:30;2.30;;;1.92;;
9563;SDS011;4820;50.870;4.702;2023-04-01T05:35:57;2.38;;;2.10;;
9563;SDS011;4820;50.870;4.702;2023-04-01T05:38:32;2.53;;;1.77;;
9563;SDS011;4820;50.870;4.702;2023-04-01T05:40:58;2.80;;;1.80;;
9563;SDS011;4820;50.870;4.702;2023-04-01T05:43:25;2.20;;;1.67;;
9563;SDS011;4820;50.870;4.702;2023-04-01T05:45:51;2.60;;;1.38;;
9563;SDS011;4820;50.870;4.702;2023-04-01T05:48:16;2.03;;;1.70;;
9563;SDS011;4820;50.870;4.702;2023-04-01T05:50:42;2.28;;;2.00;;
9563;SDS011;4820;50.870;4.702;2023-04-01T05:53:08;2.38;;;2.17;;
9563;SDS011;4820;50.870;4.702;2023-04-01T05:55:34;2.10;;;1.90;;
9563;SDS011;4820;50.870;4.702;2023-04-01T05:58:01;3.00;;;2.22;;
9563;SDS011;4820;50.870;4.702;2023-04-01T06:00:27;2.75;;;2.30;;
9563;SDS011;4820;50.870;4.702;2023-04-01T06:02:52;3.15;;;2.38;;
9563;SDS011;4820;50.870;4.702;2023-04-01T06:05:19;2.42;;;2.22;;
9563;SDS011;4820;50.870;4.702;2023-04-01T06:07:51;2.65;;;2.45;;
9563;SDS011;4820;50.870;4.702;2023-04-01T06:10:23;2.70;;;2.30;;
9563;SDS011;4820;50.870;4.702;2023-04-01T06:13:21;3.92;;;2.95;;
9563;SDS011;4820;50.870;4.702;2023-04-01T06:24:21;4.20;;;3.58;;
9563;SDS011;4820;50.870;4.702;2023-04-01T06:26:52;6.03;;;3.75;;
9563;SDS011;4820;50.870;4.702;2023-04-01T06:37:51;6.25;;;4.20;;
9563;SDS011;4820;50.870;4.702;2023-04-01T06:40:50;6.85;;;3.80;;
9563;SDS011;4820;50.870;4.702;2023-04-01T06:51:59;4.50;;;4.00;;
9563;SDS011;4820;50.870;4.702;2023-04-01T06:54:40;5.32;;;4.22;;
9563;SDS011;4820;50.870;4.702;2023-04-01T07:00:29;5.88;;;3.95;;
9563;SDS011;4820;50.870;4.702;2023-04-01T07:05:39;5.15;;;4.35;;
9563;SDS011;4820;50.870;4.702;2023-04-01T07:08:05;4.63;;;3.80;;
9563;SDS011;4820;50.870;4.702;2023-04-01T07:10:43;5.15;;;3.70;;
9563;SDS011;4820;50.870;4.702;2023-04-01T07:13:34;5.65;;;3.72;;
9563;SDS011;4820;50.870;4.702;2023-04-01T07:19:18;3.97;;;3.58;;
9563;SDS011;4820;50.870;4.702;2023-04-01T07:21:57;5.97;;;3.88;;
9563;SDS011;4820;50.870;4.702;2023-04-01T07:24:40;5.30;;;3.35;;
9563;SDS011;4820;50.870;4.702;2023-04-01T07:27:09;4.95;;;3.13;;
9563;SDS011;4820;50.870;4.702;2023-04-01T07:29:36;3.15;;;2.63;;
9563;SDS011;4820;50.870;4.702;2023-04-01T07:32:16;5.15;;;2.92;;
9563;SDS011;4820;50.870;4.702;2023-04-01T07:49:21;1.95;;;1.70;;
9563;SDS011;4820;50.870;4.702;2023-04-01T07:52:06;2.70;;;1.95;;
9563;SDS011;4820;50.870;4.702;2023-04-01T07:55:03;2.72;;;2.13;;
9563;SDS011;4820;50.870;4.702;2023-04-01T07:58:00;3.42;;;2.10;;
9563;SDS011;4820;50.870;4.702;2023-04-01T08:03:37;1.60;;;1.15;;
9563;SDS011;4820;50.870;4.702;2023-04-01T08:06:20;1.52;;;1.20;;
9563;SDS011;4820;50.870;4.702;2023-04-01T08:22:25;0.88;;;0.70;;
9563;SDS011;4820;50.870;4.702;2023-04-01T08:24:54;1.48;;;0.77;;
9563;SDS011;4820;50.870;4.702;2023-04-01T08:27:27;0.70;;;0.70;;
9563;SDS011;4820;50.870;4.702;2023-04-01T08:36:10;1.25;;;0.80;;
9563;SDS011;4820;50.870;4.702;2023-04-01T08:40:59;1.00;;;0.90;;
9563;SDS011;4820;50.870;4.702;2023-04-01T08:46:17;1.48;;;0.80;;
9563;SDS011;4820;50.870;4.702;2023-04-01T08:57:49;1.25;;;0.90;;
9563;SDS011;4820;50.870;4.702;2023-04-01T09:00:31;1.42;;;1.00;;
9563;SDS011;4820;50.870;4.702;2023-04-01T09:14:46;2.58;;;1.10;;
9563;SDS011;4820;50.870;4.702;2023-04-01T09:17:36;1.20;;;1.10;;
9563;SDS011;4820;50.870;4.702;2023-04-01T09:20:42;1.55;;;1.10;;
9563;SDS011;4820;50.870;4.702;2023-04-01T09:42:06;1.10;;;0.93;;
9563;SDS011;4820;50.870;4.702;2023-04-01T09:44:48;1.30;;;0.82;;
9563;SDS011;4820;50.870;4.702;2023-04-01T09:56:32;1.55;;;0.98;;
9563;SDS011;4820;50.870;4.702;2023-04-01T10:02:18;1.73;;;1.00;;
9563;SDS011;4820;50.870;4.702;2023-04-01T10:08:31;1.33;;;1.23;;
9563;SDS011;4820;50.870;4.702;2023-04-01T10:19:46;2.58;;;1.60;;
9563;SDS011;4820;50.870;4.702;2023-04-01T10:28:20;2.95;;;1.85;;
9563;SDS011;4820;50.870;4.702;2023-04-01T10:50:22;4.30;;;1.58;;
9563;SDS011;4820;50.870;4.702;2023-04-01T10:56:52;1.50;;;1.30;;
9563;SDS011;4820;50.870;4.702;2023-04-01T11:10:47;2.40;;;1.55;;
9563;SDS011;4820;50.870;4.702;2023-04-01T11:14:16;1.63;;;1.40;;
9563;SDS011;4820;50.870;4.702;2023-04-01T11:19:34;2.08;;;1.48;;
9563;SDS011;4820;50.870;4.702;2023-04-01T11:27:51;1.30;;;1.20;;
9563;SDS011;4820;50.870;4.702;2023-04-01T11:30:25;2.70;;;1.85;;
9563;SDS011;4820;50.870;4.702;2023-04-01T11:38:34;1.10;;;1.00;;
9563;SDS011;4820;50.870;4.702;2023-04-01T11:41:06;2.10;;;0.90;;
9563;SDS011;4820;50.870;4.702;2023-04-01T11:43:44;1.33;;;0.82;;
9563;SDS011;4820;50.870;4.702;2023-04-01T11:46:33;1.90;;;0.93;;
9563;SDS011;4820;50.870;4.702;2023-04-01T11:49:40;0.80;;;0.80;;
9563;SDS011;4820;50.870;4.702;2023-04-01T12:11:30;0.80;;;0.80;;
9563;SDS011;4820;50.870;4.702;2023-04-01T12:14:27;1.42;;;1.00;;
9563;SDS011;4820;50.870;4.702;2023-04-01T12:17:37;1.92;;;1.20;;
9563;SDS011;4820;50.870;4.702;2023-04-01T12:28:49;1.25;;;0.95;;
9563;SDS011;4820;50.870;4.702;2023-04-01T12:31:46;2.08;;;1.15;;
9563;SDS011;4820;50.870;4.702;2023-04-01T12:37:33;2.97;;;1.35;;
9563;SDS011;4820;50.870;4.702;2023-04-01T12:45:55;1.45;;;1.27;;
9563;SDS011;4820;50.870;4.702;2023-04-01T12:48:57;4.93;;;2.13;;
9563;SDS011;4820;50.870;4.702;2023-04-01T12:57:26;1.50;;;1.30;;
9563;SDS011;4820;50.870;4.702;2023-04-01T13:05:47;1.55;;;1.20;;
9563;SDS011;4820;50.870;4.702;2023-04-01T13:11:47;0.80;;;0.80;;
9563;SDS011;4820;50.870;4.702;2023-04-01T13:23:33;2.67;;;1.45;;
9563;SDS011;4820;50.870;4.702;2023-04-01T13:26:17;1.40;;;1.30;;
9563;SDS011;4820;50.870;4.702;2023-04-01T13:28:53;1.85;;;1.20;;
9563;SDS011;4820;50.870;4.702;2023-04-01T13:34:27;1.33;;;1.10;;
9563;SDS011;4820;50.870;4.702;2023-04-01T13:42:53;1.58;;;1.20;;
9563;SDS011;4820;50.870;4.702;2023-04-01T13:45:24;1.65;;;1.20;;
9563;SDS011;4820;50.870;4.702;2023-04-01T14:01:42;0.90;;;0.80;;
9563;SDS011;4820;50.870;4.702;2023-04-01T14:10:11;1.00;;;0.90;;
9563;SDS011;4820;50.870;4.702;2023-04-01T14:12:58;0.73;;;0.73;;
9563;SDS011;4820;50.870;4.702;2023-04-01T14:18:16;0.90;;;0.90;;
9563;SDS011;4820;50.870;4.702;2023-04-01T14:37:00;2.10;;;1.70;;
9563;SDS011;4820;50.870;4.702;2023-04-01T14:49:14;2.03;;;1.83;;
9563;SDS011;4820;50.870;4.702;2023-04-01T14:51:40;2.28;;;1.55;;
9563;SDS011;4820;50.870;4.702;2023-04-01T14:59:40;1.60;;;1.50;;
9563;SDS011;4820;50.870;4.702;2023-04-01T15:08:03;1.80;;;1.55;;
9563;SDS011;4820;50.870;4.702;2023-04-01T15:32:16;1.80;;;1.27;;
9563;SDS011;4820;50.870;4.702;2023-04-01T15:42:44;2.38;;;1.20;;
9563;SDS011;4820;50.870;4.702;2023-04-01T15:59:09;3.30;;;1.33;;
9563;SDS011;4820;50.870;4.702;2023-04-01T16:01:58;2.00;;;1.73;;
9563;SDS011;4820;50.870;4.702;2023-04-01T16:10:29;1.65;;;1.25;;
9563;SDS011;4820;50.870;4.702;2023-04-01T16:13:36;1.88;;;1.48;;
9563;SDS011;4820;50.870;4.702;2023-04-01T16:16:14;1.45;;;1.20;;
9563;SDS011;4820;50.870;4.702;2023-04-01T16:21:51;1.95;;;1.27;;
9563;SDS011;4820;50.870;4.702;2023-04-01T16:24:20;3.03;;;1.20;;
9563;SDS011;4820;50.870;4.702;2023-04-01T16:43:48;1.85;;;1.10;;
9563;SDS011;4820;50.870;4.702;2023-04-01T16:51:25;2.28;;;1.52;;
9563;SDS011;4820;50.870;4.702;2023-04-01T16:54:04;2.85;;;1.60;;
9563;SDS011;4820;50.870;4.702;2023-04-01T16:56:43;2.58;;;1.67;;
9563;SDS011;4820;50.870;4.702;2023-04-01T17:00:15;1.67;;;1.50;;
9563;SDS011;4820;50.870;4.702;2023-04-01T17:02:23;3.03;;;1.77;;
9563;SDS011;4820;50.870;4.702;2023-04-01T17:10:22;2.90;;;1.70;;
9563;SDS011;4820;50.870;4.702;2023-04-01T17:15:46;1.85;;;1.70;;
9563;SDS011;4820;50.870;4.702;2023-04-01T17:21:13;2.10;;;1.73;;
9563;SDS011;4820;50.870;4.702;2023-04-01T17:23:53;2.03;;;1.80;;
9563;SDS011;4820;50.870;4.702;2023-04-01T17:27:28;3.22;;;2.10;;
9563;SDS011;4820;50.870;4.702;2023-04-01T17:32:56;2.08;;;1.88;;
9563;SDS011;4820;50.870;4.702;2023-04-01T17:39:29;2.63;;;2.25;;
9563;SDS011;4820;50.870;4.702;2023-04-01T17:41:57;2.33;;;2.13;;
9563;SDS011;4820;50.870;4.702;2023-04-01T17:44:55;2.88;;;2.10;;
9563;SDS011;4820;50.870;4.702;2023-04-01T17:53:29;2.88;;;2.00;;
9563;SDS011;4820;50.870;4.702;2023-04-01T17:56:07;2.25;;;2.00;;
9563;SDS011;4820;50.870;4.702;2023-04-01T18:17:59;2.63;;;2.42;;
9563;SDS011;4820;50.870;4.702;2023-04-01T18:20:55;2.30;;;2.10;;
9563;SDS011;4820;50.870;4.702;2023-04-01T18:23:51;2.72;;;2.38;;
9563;SDS011;4820;50.870;4.702;2023-04-01T18:26:40;2.60;;;2.40;;
9563;SDS011;4820;50.870;4.702;2023-04-01T18:29:26;2.90;;;2.63;;
9563;SDS011;4820;50.870;4.702;2023-04-01T18:32:11;2.70;;;2.50;;
9563;SDS011;4820;50.870;4.702;2023-04-01T18:40:32;3.42;;;2.70;;
9563;SDS011;4820;50.870;4.702;2023-04-01T18:43:17;3.08;;;2.78;;
9563;SDS011;4820;50.870;4.702;2023-04-01T18:49:06;3.55;;;3.22;;
9563;SDS011;4820;50.870;4.702;2023-04-01T18:51:53;3.90;;;3.28;;
9563;SDS011;4820;50.870;4.702;2023-04-01T18:54:25;3.42;;;3.13;;
9563;SDS011;4820;50.870;4.702;2023-04-01T18:57:07;3.50;;;3.20;;
9563;SDS011;4820;50.870;4.702;2023-04-01T18:59:53;4.00;;;3.60;;
9563;SDS011;4820;50.870;4.702;2023-04-01T19:02:34;3.55;;;3.25;;
9563;SDS011;4820;50.870;4.702;2023-04-01T19:07:49;4.30;;;3.83;;
9563;SDS011;4820;50.870;4.702;2023-04-01T19:16:10;4.03;;;3.42;;
9563;SDS011;4820;50.870;4.702;2023-04-01T19:21:38;4.50;;;3.55;;
9563;SDS011;4820;50.870;4.702;2023-04-01T19:27:02;4.88;;;4.43;;
9563;SDS011;4820;50.870;4.702;2023-04-01T19:36:03;5.53;;;4.43;;
9563;SDS011;4820;50.870;4.702;2023-04-01T19:38:55;4.82;;;4.32;;
9563;SDS011;4820;50.870;4.702;2023-04-01T20:00:22;4.70;;;4.30;;
9563;SDS011;4820;50.870;4.702;2023-04-01T20:11:08;5.82;;;4.95;;
9563;SDS011;4820;50.870;4.702;2023-04-01T20:16:43;6.60;;;5.28;;
9563;SDS011;4820;50.870;4.702;2023-04-01T20:19:12;7.18;;;4.88;;
9563;SDS011;4820;50.870;4.702;2023-04-01T20:26:43;6.50;;;4.75;;
9563;SDS011;4820;50.870;4.702;2023-04-01T20:29:18;7.22;;;5.35;;
9563;SDS011;4820;50.870;4.702;2023-04-01T20:32:11;5.90;;;4.85;;
9563;SDS011;4820;50.870;4.702;2023-04-01T20:37:41;7.30;;;5.80;;
9563;SDS011;4820;50.870;4.702;2023-04-01T20:53:43;8.32;;;6.85;;
9563;SDS011;4820;50.870;4.702;2023-04-01T20:58:56;9.23;;;8.40;;
9563;SDS011;4820;50.870;4.702;2023-04-01T21:01:44;9.93;;;8.45;;
9563;SDS011;4820;50.870;4.702;2023-04-01T21:07:28;10.85;;;9.57;;
9563;SDS011;4820;50.870;4.702;2023-04-01T21:12:40;12.57;;;10.75;;
9563;SDS011;4820;50.870;4.702;2023-04-01T21:15:21;11.05;;;9.82;;
9563;SDS011;4820;50.870;4.702;2023-04-01T21:17:57;11.50;;;10.40;;
9563;SDS011;4820;50.870;4.702;2023-04-01T21:28:29;14.32;;;11.45;;
9563;SDS011;4820;50.870;4.702;2023-04-01T21:34:31;13.15;;;11.18;;
9563;SDS011;4820;50.870;4.702;2023-04-01T21:43:03;12.70;;;11.32;;
9563;SDS011;4820;50.870;4.702;2023-04-01T21:57:00;16.25;;;14.55;;
9563;SDS011;4820;50.870;4.702;2023-04-01T22:04:54;8.40;;;7.60;;
9563;SDS011;4820;50.870;4.702;2023-04-01T22:13:26;8.57;;;7.72;;
9563;SDS011;4820;50.870;4.702;2023-04-01T22:16:23;9.50;;;8.50;;
9563;SDS011;4820;50.870;4.702;2023-04-01T22:21:44;11.98;;;10.88;;
9563;SDS011;4820;50.870;4.702;2023-04-01T22:24:32;12.32;;;11.13;;
9563;SDS011;4820;50.870;4.702;2023-04-01T22:32:24;13.88;;;12.57;;
9563;SDS011;4820;50.870;4.702;2023-04-01T22:34:57;13.55;;;11.88;;
9563;SDS011;4820;50.870;4.702;2023-04-01T22:37:58;12.90;;;11.70;;
9563;SDS011;4820;50.870;4.702;2023-04-01T22:40:33;12.63;;;11.43;;
9563;SDS011;4820;50.870;4.702;2023-04-01T22:43:10;13.10;;;11.88;;
9563;SDS011;4820;50.870;4.702;2023-04-01T22:45:42;13.32;;;12.13;;
9563;SDS011;4820;50.870;4.702;2023-04-01T22:48:59;13.52;;;12.30;;
9563;SDS011;4820;50.870;4.702;2023-04-01T22:56:35;12.80;;;11.65;;
9563;SDS011;4820;50.870;4.702;2023-04-01T22:59:06;13.15;;;11.85;;
9563;SDS011;4820;50.870;4.702;2023-04-01T23:02:07;12.85;;;11.65;;
9563;SDS011;4820;50.870;4.702;2023-04-01T23:04:58;12.73;;;11.45;;
9563;SDS011;4820;50.870;4.702;2023-04-01T23:10:54;11.70;;;10.50;;
9563;SDS011;4820;50.870;4.702;2023-04-01T23:13:28;11.70;;;10.60;;
9563;SDS011;4820;50.870;4.702;2023-04-01T23:16:00;11.65;;;10.60;;
9563;SDS011;4820;50.870;4.702;2023-04-01T23:18:36;12.13;;;11.05;;
9563;SDS011;4820;50.870;4.702;2023-04-01T23:21:40;11.05;;;10.05;;
9563;SDS011;4820;50.870;4.702;2023-04-01T23:27:00;11.13;;;10.10;;
9563;SDS011;4820;50.870;4.702;2023-04-01T23:29:47;11.18;;;10.18;;
9563;SDS011;4820;50.870;4.702;2023-04-01T23:32:18;10.50;;;9.60;;
9563;SDS011;4820;50.870;4.702;2023-04-01T23:34:49;10.95;;;9.95;;
9563;SDS011;4820;50.870;4.702;2023-04-01T23:37:17;11.32;;;10.32;;
9563;SDS011;4820;50.870;4.702;2023-04-01T23:40:17;12.05;;;10.95;;
9563;SDS011;4820;50.870;4.702;2023-04-01T23:42:41;11.77;;;10.68;;
9563;SDS011;4820;50.870;4.702;2023-04-01T23:45:12;10.95;;;9.95;;
9563;SDS011;4820;50.870;4.702;2023-04-01T23:47:42;11.70;;;10.70;;
9563;SDS011;4820;50.870;4.702;2023-04-01T23:50:11;9.55;;;8.65;;
9563;SDS011;4820;50.870;4.702;2023-04-01T23:52:46;9.30;;;8.48;;
9563;SDS011;4820;50.870;4.702;2023-04-01T23:57:42;9.55;;;8.65;;
